sensor_id;sensor_type;location;lat;lon;timestamp;P1;durP1;ratioP1;P2;durP2;ratioP2
35602;SDS011;21725;50.836;4.368;2023-03-12T00:00:35;12.63;;;4.28;;
35602;SDS011;21725;50.836;4.368;2023-03-12T00:03:37;14.93;;;4.55;;
35602;SDS011;21725;50.836;4.368;2023-03-12T00:06:39;8.65;;;4.05;;
35602;SDS011;21725;50.836;4.368;2023-03-12T00:09:40;7.68;;;4.30;;
35602;SDS011;21725;50.836;4.368;2023-03-12T00:12:40;10.15;;;4.00;;
35602;SDS011;21725;50.836;4.368;2023-03-12T00:15:41;11.93;;;5.25;;
35602;SDS011;21725;50.836;4.368;2023-03-12T00:18:42;7.85;;;4.80;;
35602;SDS011;21725;50.836;4.368;2023-03-12T00:21:43;9.65;;;4.13;;
35602;SDS011;21725;50.836;4.368;2023-03-12T00:24:44;10.35;;;4.50;;
35602;SDS011;21725;50.836;4.368;2023-03-12T00:27:50;15.32;;;4.85;;
35602;SDS011;21725;50.836;4.368;2023-03-12T00:30:51;18.60;;;6.35;;
35602;SDS011;21725;50.836;4.368;2023-03-12T00:33:54;12.55;;;4.80;;
35602;SDS011;21725;50.836;4.368;2023-03-12T00:37:01;8.23;;;4.25;;
35602;SDS011;21725;50.836;4.368;2023-03-12T00:40:02;15.65;;;5.63;;
35602;SDS011;21725;50.836;4.368;2023-03-12T00:43:05;10.10;;;4.57;;
35602;SDS011;21725;50.836;4.368;2023-03-12T00:46:05;9.40;;;4.75;;
35602;SDS011;21725;50.836;4.368;2023-03-12T00:49:06;12.63;;;5.57;;
35602;SDS011;21725;50.836;4.368;2023-03-12T00:52:07;7.22;;;4.07;;
35602;SDS011;21725;50.836;4.368;2023-03-12T00:55:08;9.45;;;4.40;;
35602;SDS011;21725;50.836;4.368;2023-03-12T00:58:09;10.02;;;3.83;;
35602;SDS011;21725;50.836;4.368;2023-03-12T01:01:10;9.80;;;3.55;;
35602;SDS011;21725;50.836;4.368;2023-03-12T01:04:11;10.63;;;5.28;;
35602;SDS011;21725;50.836;4.368;2023-03-12T01:07:11;13.30;;;4.80;;
35602;SDS011;21725;50.836;4.368;2023-03-12T01:10:13;7.95;;;4.68;;
35602;SDS011;21725;50.836;4.368;2023-03-12T01:13:18;11.38;;;3.45;;
35602;SDS011;21725;50.836;4.368;2023-03-12T01:16:19;16.42;;;3.97;;
35602;SDS011;21725;50.836;4.368;2023-03-12T01:19:20;7.53;;;2.97;;
35602;SDS011;21725;50.836;4.368;2023-03-12T01:22:20;10.88;;;3.38;;
35602;SDS011;21725;50.836;4.368;2023-03-12T01:25:21;11.55;;;4.55;;
35602;SDS011;21725;50.836;4.368;2023-03-12T01:28:22;10.95;;;3.72;;
35602;SDS011;21725;50.836;4.368;2023-03-12T01:31:24;10.35;;;4.20;;
35602;SDS011;21725;50.836;4.368;2023-03-12T01:34:28;11.93;;;4.07;;
35602;SDS011;21725;50.836;4.368;2023-03-12T01:37:30;5.85;;;3.00;;
35602;SDS011;21725;50.836;4.368;2023-03-12T01:40:33;8.05;;;2.95;;
35602;SDS011;21725;50.836;4.368;2023-03-12T01:43:36;12.52;;;3.40;;
35602;SDS011;21725;50.836;4.368;2023-03-12T01:46:41;7.95;;;2.80;;
35602;SDS011;21725;50.836;4.368;2023-03-12T01:49:43;7.93;;;3.05;;
35602;SDS011;21725;50.836;4.368;2023-03-12T01:52:45;7.18;;;3.70;;
35602;SDS011;21725;50.836;4.368;2023-03-12T01:55:46;10.80;;;3.85;;
35602;SDS011;21725;50.836;4.368;2023-03-12T01:58:49;8.98;;;3.20;;
35602;SDS011;21725;50.836;4.368;2023-03-12T02:01:54;5.47;;;2.67;;
35602;SDS011;21725;50.836;4.368;2023-03-12T02:05:02;8.63;;;3.35;;
35602;SDS011;21725;50.836;4.368;2023-03-12T02:08:11;5.50;;;2.47;;
35602;SDS011;21725;50.836;4.368;2023-03-12T02:11:13;12.70;;;2.92;;
35602;SDS011;21725;50.836;4.368;2023-03-12T02:14:14;8.50;;;3.50;;
35602;SDS011;21725;50.836;4.368;2023-03-12T02:17:15;7.28;;;3.00;;
35602;SDS011;21725;50.836;4.368;2023-03-12T02:20:20;7.10;;;3.15;;
35602;SDS011;21725;50.836;4.368;2023-03-12T02:23:34;9.02;;;2.97;;
35602;SDS011;21725;50.836;4.368;2023-03-12T02:26:42;6.93;;;3.05;;
35602;SDS011;21725;50.836;4.368;2023-03-12T02:29:43;9.50;;;3.85;;
35602;SDS011;21725;50.836;4.368;2023-03-12T02:32:45;8.52;;;3.25;;
35602;SDS011;21725;50.836;4.368;2023-03-12T02:35:47;5.70;;;2.45;;
35602;SDS011;21725;50.836;4.368;2023-03-12T02:38:49;8.35;;;2.95;;
35602;SDS011;21725;50.836;4.368;2023-03-12T02:41:53;7.47;;;2.65;;
35602;SDS011;21725;50.836;4.368;2023-03-12T02:44:56;10.60;;;4.28;;
35602;SDS011;21725;50.836;4.368;2023-03-12T02:47:58;7.72;;;3.13;;
35602;SDS011;21725;50.836;4.368;2023-03-12T02:50:59;14.02;;;5.13;;
35602;SDS011;21725;50.836;4.368;2023-03-12T02:53:59;5.85;;;2.97;;
35602;SDS011;21725;50.836;4.368;2023-03-12T02:57:00;8.23;;;3.50;;
35602;SDS011;21725;50.836;4.368;2023-03-12T03:00:02;10.48;;;3.15;;
35602;SDS011;21725;50.836;4.368;2023-03-12T03:03:11;11.35;;;3.80;;
35602;SDS011;21725;50.836;4.368;2023-03-12T03:06:12;9.07;;;3.35;;
35602;SDS011;21725;50.836;4.368;2023-03-12T03:09:13;6.20;;;3.30;;
35602;SDS011;21725;50.836;4.368;2023-03-12T03:12:14;6.75;;;2.60;;
35602;SDS011;21725;50.836;4.368;2023-03-12T03:15:15;8.73;;;3.53;;
35602;SDS011;21725;50.836;4.368;2023-03-12T03:18:16;11.30;;;4.65;;
35602;SDS011;21725;50.836;4.368;2023-03-12T03:21:16;7.10;;;3.05;;
35602;SDS011;21725;50.836;4.368;2023-03-12T03:24:17;7.22;;;3.28;;
35602;SDS011;21725;50.836;4.368;2023-03-12T03:27:18;8.85;;;3.60;;
35602;SDS011;21725;50.836;4.368;2023-03-12T03:30:20;8.93;;;2.85;;
35602;SDS011;21725;50.836;4.368;2023-03-12T03:33:21;5.20;;;2.78;;
35602;SDS011;21725;50.836;4.368;2023-03-12T03:36:24;8.68;;;3.13;;
35602;SDS011;21725;50.836;4.368;2023-03-12T03:39:28;9.02;;;3.10;;
35602;SDS011;21725;50.836;4.368;2023-03-12T03:42:29;10.30;;;3.17;;
35602;SDS011;21725;50.836;4.368;2023-03-12T03:45:30;9.50;;;3.28;;
35602;SDS011;21725;50.836;4.368;2023-03-12T03:48:31;8.05;;;3.05;;
35602;SDS011;21725;50.836;4.368;2023-03-12T03:51:32;8.27;;;3.42;;
35602;SDS011;21725;50.836;4.368;2023-03-12T03:54:33;8.75;;;4.07;;
35602;SDS011;21725;50.836;4.368;2023-03-12T03:57:35;5.82;;;3.40;;
35602;SDS011;21725;50.836;4.368;2023-03-12T04:00:36;17.25;;;4.75;;
35602;SDS011;21725;50.836;4.368;2023-03-12T04:03:36;7.90;;;3.42;;
35602;SDS011;21725;50.836;4.368;2023-03-12T04:06:37;10.45;;;3.38;;
35602;SDS011;21725;50.836;4.368;2023-03-12T04:09:38;8.70;;;3.17;;
35602;SDS011;21725;50.836;4.368;2023-03-12T04:12:39;9.43;;;4.03;;
35602;SDS011;21725;50.836;4.368;2023-03-12T04:15:50;7.57;;;4.05;;
35602;SDS011;21725;50.836;4.368;2023-03-12T04:18:52;10.70;;;5.32;;
35602;SDS011;21725;50.836;4.368;2023-03-12T04:21:53;10.63;;;4.25;;
35602;SDS011;21725;50.836;4.368;2023-03-12T04:24:53;12.85;;;4.18;;
35602;SDS011;21725;50.836;4.368;2023-03-12T04:27:54;7.47;;;3.60;;
35602;SDS011;21725;50.836;4.368;2023-03-12T04:30:56;7.13;;;3.78;;
35602;SDS011;21725;50.836;4.368;2023-03-12T04:33:58;15.30;;;3.72;;
35602;SDS011;21725;50.836;4.368;2023-03-12T04:37:00;10.07;;;4.20;;
35602;SDS011;21725;50.836;4.368;2023-03-12T04:40:02;9.48;;;4.50;;
35602;SDS011;21725;50.836;4.368;2023-03-12T04:43:06;15.68;;;4.78;;
35602;SDS011;21725;50.836;4.368;2023-03-12T04:46:07;7.47;;;4.25;;
35602;SDS011;21725;50.836;4.368;2023-03-12T04:49:08;7.95;;;3.67;;
35602;SDS011;21725;50.836;4.368;2023-03-12T04:52:09;9.85;;;4.45;;
35602;SDS011;21725;50.836;4.368;2023-03-12T04:55:10;10.10;;;4.57;;
35602;SDS011;21725;50.836;4.368;2023-03-12T04:58:11;11.57;;;4.60;;
35602;SDS011;21725;50.836;4.368;2023-03-12T05:24:25;10.57;;;6.32;;
35602;SDS011;21725;50.836;4.368;2023-03-12T05:27:27;9.85;;;6.07;;
35602;SDS011;21725;50.836;4.368;2023-03-12T05:30:28;10.93;;;6.18;;
35602;SDS011;21725;50.836;4.368;2023-03-12T05:33:32;9.45;;;6.45;;
35602;SDS011;21725;50.836;4.368;2023-03-12T05:36:32;12.02;;;6.95;;
35602;SDS011;21725;50.836;4.368;2023-03-12T05:39:33;12.60;;;6.72;;
35602;SDS011;21725;50.836;4.368;2023-03-12T05:42:34;9.68;;;5.70;;
35602;SDS011;21725;50.836;4.368;2023-03-12T05:45:35;10.73;;;6.20;;
35602;SDS011;21725;50.836;4.368;2023-03-12T05:48:35;9.27;;;6.30;;
35602;SDS011;21725;50.836;4.368;2023-03-12T05:51:39;10.43;;;6.15;;
35602;SDS011;21725;50.836;4.368;2023-03-12T05:54:40;12.85;;;8.52;;
35602;SDS011;21725;50.836;4.368;2023-03-12T05:57:41;11.50;;;7.10;;
35602;SDS011;21725;50.836;4.368;2023-03-12T06:00:42;12.15;;;7.35;;
35602;SDS011;21725;50.836;4.368;2023-03-12T06:03:43;11.63;;;7.63;;
35602;SDS011;21725;50.836;4.368;2023-03-12T06:06:47;11.57;;;7.85;;
35602;SDS011;21725;50.836;4.368;2023-03-12T06:09:48;11.18;;;7.45;;
35602;SDS011;21725;50.836;4.368;2023-03-12T06:12:49;13.35;;;8.10;;
35602;SDS011;21725;50.836;4.368;2023-03-12T06:15:50;13.65;;;9.05;;
35602;SDS011;21725;50.836;4.368;2023-03-12T06:18:51;10.85;;;8.68;;
35602;SDS011;21725;50.836;4.368;2023-03-12T06:21:53;11.88;;;9.15;;
35602;SDS011;21725;50.836;4.368;2023-03-12T06:24:54;15.23;;;8.98;;
35602;SDS011;21725;50.836;4.368;2023-03-12T06:27:55;11.75;;;8.40;;
35602;SDS011;21725;50.836;4.368;2023-03-12T06:30:58;14.38;;;7.75;;
35602;SDS011;21725;50.836;4.368;2023-03-12T06:33:59;12.68;;;7.95;;
35602;SDS011;21725;50.836;4.368;2023-03-12T06:37:00;11.50;;;8.15;;
35602;SDS011;21725;50.836;4.368;2023-03-12T06:40:01;16.27;;;9.27;;
35602;SDS011;21725;50.836;4.368;2023-03-12T06:43:06;15.25;;;9.60;;
35602;SDS011;21725;50.836;4.368;2023-03-12T06:46:12;13.77;;;8.77;;
35602;SDS011;21725;50.836;4.368;2023-03-12T06:49:15;13.73;;;10.07;;
35602;SDS011;21725;50.836;4.368;2023-03-12T06:52:17;12.15;;;8.57;;
35602;SDS011;21725;50.836;4.368;2023-03-12T06:55:17;14.57;;;9.48;;
35602;SDS011;21725;50.836;4.368;2023-03-12T06:58:24;14.23;;;8.93;;
35602;SDS011;21725;50.836;4.368;2023-03-12T07:01:25;17.98;;;10.00;;
35602;SDS011;21725;50.836;4.368;2023-03-12T07:04:32;19.92;;;11.57;;
35602;SDS011;21725;50.836;4.368;2023-03-12T07:07:33;19.58;;;11.18;;
35602;SDS011;21725;50.836;4.368;2023-03-12T07:10:37;16.10;;;10.90;;
35602;SDS011;21725;50.836;4.368;2023-03-12T07:13:41;17.75;;;10.15;;
35602;SDS011;21725;50.836;4.368;2023-03-12T07:16:42;18.65;;;11.23;;
35602;SDS011;21725;50.836;4.368;2023-03-12T07:19:43;17.98;;;11.15;;
35602;SDS011;21725;50.836;4.368;2023-03-12T07:22:43;37.72;;;16.25;;
35602;SDS011;21725;50.836;4.368;2023-03-12T07:25:45;18.40;;;10.75;;
35602;SDS011;21725;50.836;4.368;2023-03-12T07:28:46;19.13;;;10.57;;
35602;SDS011;21725;50.836;4.368;2023-03-12T07:31:50;20.92;;;11.55;;
35602;SDS011;21725;50.836;4.368;2023-03-12T07:34:50;20.17;;;10.98;;
35602;SDS011;21725;50.836;4.368;2023-03-12T07:37:51;17.35;;;10.23;;
35602;SDS011;21725;50.836;4.368;2023-03-12T07:40:52;21.83;;;11.38;;
35602;SDS011;21725;50.836;4.368;2023-03-12T07:43:54;18.15;;;11.43;;
35602;SDS011;21725;50.836;4.368;2023-03-12T07:46:55;23.48;;;10.82;;
35602;SDS011;21725;50.836;4.368;2023-03-12T07:49:56;28.05;;;11.90;;
35602;SDS011;21725;50.836;4.368;2023-03-12T07:52:57;28.70;;;13.38;;
35602;SDS011;21725;50.836;4.368;2023-03-12T07:55:57;35.08;;;13.68;;
35602;SDS011;21725;50.836;4.368;2023-03-12T07:58:58;38.05;;;13.70;;
35602;SDS011;21725;50.836;4.368;2023-03-12T08:01:59;43.72;;;13.02;;
35602;SDS011;21725;50.836;4.368;2023-03-12T08:05:00;38.83;;;15.95;;
35602;SDS011;21725;50.836;4.368;2023-03-12T08:08:01;50.25;;;16.65;;
35602;SDS011;21725;50.836;4.368;2023-03-12T08:11:02;45.80;;;14.27;;
35602;SDS011;21725;50.836;4.368;2023-03-12T08:14:04;53.35;;;18.13;;
35602;SDS011;21725;50.836;4.368;2023-03-12T08:17:05;48.85;;;18.42;;
35602;SDS011;21725;50.836;4.368;2023-03-12T08:20:06;51.55;;;18.20;;
35602;SDS011;21725;50.836;4.368;2023-03-12T08:23:10;58.22;;;17.83;;
35602;SDS011;21725;50.836;4.368;2023-03-12T08:26:11;53.30;;;16.58;;
35602;SDS011;21725;50.836;4.368;2023-03-12T08:29:12;63.45;;;22.58;;
35602;SDS011;21725;50.836;4.368;2023-03-12T08:32:13;65.25;;;21.10;;
35602;SDS011;21725;50.836;4.368;2023-03-12T08:35:14;61.65;;;18.65;;
35602;SDS011;21725;50.836;4.368;2023-03-12T08:38:17;48.78;;;17.48;;
35602;SDS011;21725;50.836;4.368;2023-03-12T08:41:18;60.63;;;16.80;;
35602;SDS011;21725;50.836;4.368;2023-03-12T08:44:23;58.83;;;17.08;;
35602;SDS011;21725;50.836;4.368;2023-03-12T08:47:24;58.25;;;15.40;;
35602;SDS011;21725;50.836;4.368;2023-03-12T08:50:24;58.03;;;17.10;;
35602;SDS011;21725;50.836;4.368;2023-03-12T08:53:28;56.45;;;14.02;;
35602;SDS011;21725;50.836;4.368;2023-03-12T08:56:31;56.55;;;16.23;;
35602;SDS011;21725;50.836;4.368;2023-03-12T08:59:32;45.88;;;12.55;;
35602;SDS011;21725;50.836;4.368;2023-03-12T09:02:33;54.88;;;13.80;;
35602;SDS011;21725;50.836;4.368;2023-03-12T09:05:33;50.92;;;14.63;;
35602;SDS011;21725;50.836;4.368;2023-03-12T09:08:34;40.50;;;13.57;;
35602;SDS011;21725;50.836;4.368;2023-03-12T09:11:35;53.88;;;15.05;;
35602;SDS011;21725;50.836;4.368;2023-03-12T09:14:38;48.38;;;11.48;;
35602;SDS011;21725;50.836;4.368;2023-03-12T09:17:40;46.50;;;14.00;;
35602;SDS011;21725;50.836;4.368;2023-03-12T09:20:41;51.60;;;15.80;;
35602;SDS011;21725;50.836;4.368;2023-03-12T09:23:42;31.13;;;10.60;;
35602;SDS011;21725;50.836;4.368;2023-03-12T09:26:43;46.53;;;12.38;;
35602;SDS011;21725;50.836;4.368;2023-03-12T09:29:43;47.40;;;14.10;;
35602;SDS011;21725;50.836;4.368;2023-03-12T09:32:44;50.17;;;12.45;;
35602;SDS011;21725;50.836;4.368;2023-03-12T09:35:53;36.45;;;10.20;;
35602;SDS011;21725;50.836;4.368;2023-03-12T09:38:58;48.42;;;13.23;;
35602;SDS011;21725;50.836;4.368;2023-03-12T09:41:59;50.22;;;13.90;;
35602;SDS011;21725;50.836;4.368;2023-03-12T09:45:01;40.40;;;14.20;;
35602;SDS011;21725;50.836;4.368;2023-03-12T09:48:04;41.67;;;10.23;;
35602;SDS011;21725;50.836;4.368;2023-03-12T09:51:13;47.92;;;12.25;;
35602;SDS011;21725;50.836;4.368;2023-03-12T09:54:23;48.47;;;14.73;;
35602;SDS011;21725;50.836;4.368;2023-03-12T09:57:49;52.22;;;16.88;;
35602;SDS011;21725;50.836;4.368;2023-03-12T10:07:42;49.83;;;10.85;;
35602;SDS011;21725;50.836;4.368;2023-03-12T10:11:17;38.60;;;11.70;;
35602;SDS011;21725;50.836;4.368;2023-03-12T10:21:43;44.28;;;10.35;;
35602;SDS011;21725;50.836;4.368;2023-03-12T10:28:48;45.10;;;11.70;;
35602;SDS011;21725;50.836;4.368;2023-03-12T10:35:14;38.63;;;10.18;;
35602;SDS011;21725;50.836;4.368;2023-03-12T10:38:17;39.17;;;10.27;;
35602;SDS011;21725;50.836;4.368;2023-03-12T10:41:26;42.22;;;12.02;;
35602;SDS011;21725;50.836;4.368;2023-03-12T10:44:29;41.38;;;12.02;;
35602;SDS011;21725;50.836;4.368;2023-03-12T10:50:38;39.53;;;8.73;;
35602;SDS011;21725;50.836;4.368;2023-03-12T10:53:45;37.10;;;11.10;;
35602;SDS011;21725;50.836;4.368;2023-03-12T10:56:49;37.40;;;11.68;;
35602;SDS011;21725;50.836;4.368;2023-03-12T10:59:53;42.47;;;10.23;;
35602;SDS011;21725;50.836;4.368;2023-03-12T11:44:05;45.30;;;11.35;;
35602;SDS011;21725;50.836;4.368;2023-03-12T11:47:44;50.45;;;11.80;;
35602;SDS011;21725;50.836;4.368;2023-03-12T12:00:49;44.38;;;10.95;;
35602;SDS011;21725;50.836;4.368;2023-03-12T12:11:22;38.58;;;10.60;;
35602;SDS011;21725;50.836;4.368;2023-03-12T12:34:42;36.85;;;8.35;;
35602;SDS011;21725;50.836;4.368;2023-03-12T12:38:13;36.70;;;9.00;;
35602;SDS011;21725;50.836;4.368;2023-03-12T12:41:31;30.15;;;7.95;;
35602;SDS011;21725;50.836;4.368;2023-03-12T12:44:37;29.80;;;7.38;;
35602;SDS011;21725;50.836;4.368;2023-03-12T12:47:47;32.83;;;8.90;;
35602;SDS011;21725;50.836;4.368;2023-03-12T12:50:52;34.00;;;9.27;;
35602;SDS011;21725;50.836;4.368;2023-03-12T12:57:07;34.33;;;10.65;;
35602;SDS011;21725;50.836;4.368;2023-03-12T13:03:44;39.95;;;8.45;;
35602;SDS011;21725;50.836;4.368;2023-03-12T13:06:53;31.50;;;8.75;;
35602;SDS011;21725;50.836;4.368;2023-03-12T13:09:56;34.72;;;9.70;;
35602;SDS011;21725;50.836;4.368;2023-03-12T13:12:58;39.22;;;9.27;;
35602;SDS011;21725;50.836;4.368;2023-03-12T13:19:27;31.88;;;9.73;;
35602;SDS011;21725;50.836;4.368;2023-03-12T13:22:47;32.15;;;9.07;;
35602;SDS011;21725;50.836;4.368;2023-03-12T13:29:37;28.55;;;6.72;;
35602;SDS011;21725;50.836;4.368;2023-03-12T13:33:34;32.88;;;8.52;;
35602;SDS011;21725;50.836;4.368;2023-03-12T13:36:03;39.45;;;10.13;;
35602;SDS011;21725;50.836;4.368;2023-03-12T13:45:25;31.48;;;8.20;;
35602;SDS011;21725;50.836;4.368;2023-03-12T13:48:27;30.92;;;10.15;;
35602;SDS011;21725;50.836;4.368;2023-03-12T13:51:28;30.30;;;8.20;;
35602;SDS011;21725;50.836;4.368;2023-03-12T13:54:30;35.95;;;11.10;;
35602;SDS011;21725;50.836;4.368;2023-03-12T13:57:39;28.25;;;7.90;;
35602;SDS011;21725;50.836;4.368;2023-03-12T14:00:46;31.45;;;8.65;;
35602;SDS011;21725;50.836;4.368;2023-03-12T14:03:56;29.52;;;7.88;;
35602;SDS011;21725;50.836;4.368;2023-03-12T14:07:12;31.17;;;7.35;;
35602;SDS011;21725;50.836;4.368;2023-03-12T14:10:34;20.00;;;6.28;;
35602;SDS011;21725;50.836;4.368;2023-03-12T14:17:29;32.53;;;6.85;;
35602;SDS011;21725;50.836;4.368;2023-03-12T14:20:32;22.77;;;7.22;;
35602;SDS011;21725;50.836;4.368;2023-03-12T14:23:38;19.88;;;5.90;;
35602;SDS011;21725;50.836;4.368;2023-03-12T14:26:48;26.58;;;7.07;;
35602;SDS011;21725;50.836;4.368;2023-03-12T14:29:51;22.42;;;7.43;;
35602;SDS011;21725;50.836;4.368;2023-03-12T14:33:13;27.05;;;7.93;;
35602;SDS011;21725;50.836;4.368;2023-03-12T14:36:17;23.45;;;6.40;;
35602;SDS011;21725;50.836;4.368;2023-03-12T14:39:27;25.17;;;5.95;;
35602;SDS011;21725;50.836;4.368;2023-03-12T14:42:41;26.88;;;6.20;;
35602;SDS011;21725;50.836;4.368;2023-03-12T14:45:48;25.50;;;8.32;;
35602;SDS011;21725;50.836;4.368;2023-03-12T14:48:51;27.83;;;8.65;;
35602;SDS011;21725;50.836;4.368;2023-03-12T14:52:02;34.00;;;10.15;;
35602;SDS011;21725;50.836;4.368;2023-03-12T14:55:06;28.73;;;7.72;;
35602;SDS011;21725;50.836;4.368;2023-03-12T14:58:15;28.98;;;9.50;;
35602;SDS011;21725;50.836;4.368;2023-03-12T15:01:20;28.08;;;7.22;;
35602;SDS011;21725;50.836;4.368;2023-03-12T15:04:23;30.15;;;8.00;;
35602;SDS011;21725;50.836;4.368;2023-03-12T15:07:28;25.63;;;8.00;;
35602;SDS011;21725;50.836;4.368;2023-03-12T15:10:36;26.63;;;7.37;;
35602;SDS011;21725;50.836;4.368;2023-03-12T15:13:41;21.25;;;6.43;;
35602;SDS011;21725;50.836;4.368;2023-03-12T15:16:42;28.08;;;6.60;;
35602;SDS011;21725;50.836;4.368;2023-03-12T15:19:44;24.33;;;8.23;;
35602;SDS011;21725;50.836;4.368;2023-03-12T15:22:45;25.23;;;6.38;;
35602;SDS011;21725;50.836;4.368;2023-03-12T15:25:47;28.10;;;7.43;;
35602;SDS011;21725;50.836;4.368;2023-03-12T15:32:14;34.78;;;8.65;;
35602;SDS011;21725;50.836;4.368;2023-03-12T15:35:23;23.98;;;7.47;;
35602;SDS011;21725;50.836;4.368;2023-03-12T15:38:30;33.47;;;8.80;;
35602;SDS011;21725;50.836;4.368;2023-03-12T15:44:54;20.38;;;5.53;;
35602;SDS011;21725;50.836;4.368;2023-03-12T15:47:57;22.60;;;6.47;;
35602;SDS011;21725;50.836;4.368;2023-03-12T15:50:58;40.13;;;9.27;;
35602;SDS011;21725;50.836;4.368;2023-03-12T15:54:04;28.38;;;7.28;;
35602;SDS011;21725;50.836;4.368;2023-03-12T15:57:23;23.90;;;6.95;;
35602;SDS011;21725;50.836;4.368;2023-03-12T16:00:28;23.95;;;6.88;;
35602;SDS011;21725;50.836;4.368;2023-03-12T16:03:38;30.17;;;6.93;;
35602;SDS011;21725;50.836;4.368;2023-03-12T16:06:40;24.63;;;6.10;;
35602;SDS011;21725;50.836;4.368;2023-03-12T16:09:48;25.80;;;6.38;;
35602;SDS011;21725;50.836;4.368;2023-03-12T16:12:49;25.30;;;7.65;;
35602;SDS011;21725;50.836;4.368;2023-03-12T16:15:51;23.30;;;6.32;;
35602;SDS011;21725;50.836;4.368;2023-03-12T16:18:52;25.73;;;6.50;;
35602;SDS011;21725;50.836;4.368;2023-03-12T16:21:53;34.38;;;8.18;;
35602;SDS011;21725;50.836;4.368;2023-03-12T16:24:54;24.55;;;7.35;;
35602;SDS011;21725;50.836;4.368;2023-03-12T16:27:55;23.60;;;6.13;;
35602;SDS011;21725;50.836;4.368;2023-03-12T16:30:58;33.03;;;8.32;;
35602;SDS011;21725;50.836;4.368;2023-03-12T16:33:58;25.73;;;5.90;;
35602;SDS011;21725;50.836;4.368;2023-03-12T16:37:00;24.45;;;7.63;;
35602;SDS011;21725;50.836;4.368;2023-03-12T16:40:01;30.73;;;8.30;;
35602;SDS011;21725;50.836;4.368;2023-03-12T16:43:03;25.52;;;8.90;;
35602;SDS011;21725;50.836;4.368;2023-03-12T16:46:06;33.75;;;9.63;;
35602;SDS011;21725;50.836;4.368;2023-03-12T16:49:11;29.92;;;9.88;;
35602;SDS011;21725;50.836;4.368;2023-03-12T16:52:17;20.52;;;8.45;;
35602;SDS011;21725;50.836;4.368;2023-03-12T16:55:21;31.90;;;7.68;;
35602;SDS011;21725;50.836;4.368;2023-03-12T16:58:28;34.95;;;9.93;;
35602;SDS011;21725;50.836;4.368;2023-03-12T17:36:43;31.70;;;9.43;;
35602;SDS011;21725;50.836;4.368;2023-03-12T17:40:27;34.08;;;10.27;;
35602;SDS011;21725;50.836;4.368;2023-03-12T17:43:34;29.88;;;10.07;;
35602;SDS011;21725;50.836;4.368;2023-03-12T17:46:48;32.13;;;8.68;;
35602;SDS011;21725;50.836;4.368;2023-03-12T17:50:05;27.90;;;8.00;;
35602;SDS011;21725;50.836;4.368;2023-03-12T17:53:09;31.35;;;8.80;;
35602;SDS011;21725;50.836;4.368;2023-03-12T17:56:11;28.52;;;9.18;;
35602;SDS011;21725;50.836;4.368;2023-03-12T17:59:16;30.63;;;8.30;;
35602;SDS011;21725;50.836;4.368;2023-03-12T18:02:17;28.75;;;8.57;;
35602;SDS011;21725;50.836;4.368;2023-03-12T18:05:18;29.52;;;7.93;;
35602;SDS011;21725;50.836;4.368;2023-03-12T18:08:19;28.08;;;6.47;;
35602;SDS011;21725;50.836;4.368;2023-03-12T18:11:20;28.63;;;9.02;;
35602;SDS011;21725;50.836;4.368;2023-03-12T18:14:21;31.20;;;6.82;;
35602;SDS011;21725;50.836;4.368;2023-03-12T18:17:22;36.58;;;8.48;;
35602;SDS011;21725;50.836;4.368;2023-03-12T18:20:23;28.48;;;8.65;;
35602;SDS011;21725;50.836;4.368;2023-03-12T18:23:24;25.17;;;7.18;;
35602;SDS011;21725;50.836;4.368;2023-03-12T18:26:28;24.73;;;9.43;;
35602;SDS011;21725;50.836;4.368;2023-03-12T18:29:28;22.48;;;7.50;;
35602;SDS011;21725;50.836;4.368;2023-03-12T18:32:37;28.92;;;9.10;;
35602;SDS011;21725;50.836;4.368;2023-03-12T18:35:54;27.40;;;7.83;;
35602;SDS011;21725;50.836;4.368;2023-03-12T18:38:55;25.77;;;8.23;;
35602;SDS011;21725;50.836;4.368;2023-03-12T18:42:01;33.58;;;10.90;;
35602;SDS011;21725;50.836;4.368;2023-03-12T18:45:10;27.55;;;9.68;;
35602;SDS011;21725;50.836;4.368;2023-03-12T18:51:50;24.83;;;7.07;;
35602;SDS011;21725;50.836;4.368;2023-03-12T18:54:57;25.80;;;7.80;;
35602;SDS011;21725;50.836;4.368;2023-03-12T18:58:14;31.80;;;10.25;;
35602;SDS011;21725;50.836;4.368;2023-03-12T19:01:14;21.38;;;7.40;;
35602;SDS011;21725;50.836;4.368;2023-03-12T19:04:16;29.30;;;8.35;;
35602;SDS011;21725;50.836;4.368;2023-03-12T19:07:18;27.75;;;6.65;;
35602;SDS011;21725;50.836;4.368;2023-03-12T19:10:21;23.00;;;6.30;;
35602;SDS011;21725;50.836;4.368;2023-03-12T19:13:36;24.23;;;7.75;;
35602;SDS011;21725;50.836;4.368;2023-03-12T19:16:55;27.50;;;7.20;;
35602;SDS011;21725;50.836;4.368;2023-03-12T19:19:57;24.73;;;5.65;;
35602;SDS011;21725;50.836;4.368;2023-03-12T19:23:31;22.17;;;6.85;;
35602;SDS011;21725;50.836;4.368;2023-03-12T19:26:37;25.58;;;7.35;;
35602;SDS011;21725;50.836;4.368;2023-03-12T19:29:38;20.05;;;6.43;;
35602;SDS011;21725;50.836;4.368;2023-03-12T19:32:39;22.38;;;6.65;;
35602;SDS011;21725;50.836;4.368;2023-03-12T19:35:40;21.42;;;6.25;;
35602;SDS011;21725;50.836;4.368;2023-03-12T19:38:41;26.90;;;7.40;;
35602;SDS011;21725;50.836;4.368;2023-03-12T19:41:42;21.08;;;6.70;;
35602;SDS011;21725;50.836;4.368;2023-03-12T19:44:43;23.85;;;6.32;;
35602;SDS011;21725;50.836;4.368;2023-03-12T19:47:44;26.27;;;7.25;;
35602;SDS011;21725;50.836;4.368;2023-03-12T19:50:44;24.17;;;7.57;;
35602;SDS011;21725;50.836;4.368;2023-03-12T19:53:45;31.13;;;7.55;;
35602;SDS011;21725;50.836;4.368;2023-03-12T19:56:48;20.10;;;6.38;;
35602;SDS011;21725;50.836;4.368;2023-03-12T19:59:49;13.57;;;5.20;;
35602;SDS011;21725;50.836;4.368;2023-03-12T20:02:50;18.67;;;5.30;;
35602;SDS011;21725;50.836;4.368;2023-03-12T20:05:51;27.85;;;6.78;;
35602;SDS011;21725;50.836;4.368;2023-03-12T20:08:51;19.55;;;5.18;;
35602;SDS011;21725;50.836;4.368;2023-03-12T20:11:52;21.55;;;6.65;;
35602;SDS011;21725;50.836;4.368;2023-03-12T20:14:53;18.15;;;5.32;;
35602;SDS011;21725;50.836;4.368;2023-03-12T20:17:54;21.67;;;8.25;;
35602;SDS011;21725;50.836;4.368;2023-03-12T20:20:57;26.58;;;8.13;;
35602;SDS011;21725;50.836;4.368;2023-03-12T20:23:58;20.50;;;4.88;;
35602;SDS011;21725;50.836;4.368;2023-03-12T20:27:01;22.02;;;4.90;;
35602;SDS011;21725;50.836;4.368;2023-03-12T20:30:03;18.73;;;5.10;;
35602;SDS011;21725;50.836;4.368;2023-03-12T20:33:04;18.10;;;5.47;;
35602;SDS011;21725;50.836;4.368;2023-03-12T20:36:05;20.63;;;5.93;;
35602;SDS011;21725;50.836;4.368;2023-03-12T20:39:08;17.17;;;5.53;;
35602;SDS011;21725;50.836;4.368;2023-03-12T20:42:09;19.58;;;6.03;;
35602;SDS011;21725;50.836;4.368;2023-03-12T20:45:09;16.73;;;6.18;;
35602;SDS011;21725;50.836;4.368;2023-03-12T20:48:10;23.08;;;6.95;;
35602;SDS011;21725;50.836;4.368;2023-03-12T20:51:11;24.40;;;8.00;;
35602;SDS011;21725;50.836;4.368;2023-03-12T20:54:12;19.75;;;5.68;;
35602;SDS011;21725;50.836;4.368;2023-03-12T20:57:13;18.27;;;4.90;;
35602;SDS011;21725;50.836;4.368;2023-03-12T21:00:14;21.60;;;6.43;;
35602;SDS011;21725;50.836;4.368;2023-03-12T21:03:15;24.80;;;6.68;;
35602;SDS011;21725;50.836;4.368;2023-03-12T21:06:16;20.92;;;6.75;;
35602;SDS011;21725;50.836;4.368;2023-03-12T21:09:17;19.33;;;6.20;;
35602;SDS011;21725;50.836;4.368;2023-03-12T21:12:20;22.70;;;5.40;;
35602;SDS011;21725;50.836;4.368;2023-03-12T21:15:21;19.02;;;6.68;;
35602;SDS011;21725;50.836;4.368;2023-03-12T21:18:21;15.75;;;4.95;;
35602;SDS011;21725;50.836;4.368;2023-03-12T21:21:23;19.80;;;8.10;;
35602;SDS011;21725;50.836;4.368;2023-03-12T21:24:35;20.55;;;5.95;;